Terminal Aerodrome Forecast
Issued by NWS

Home | Current Version | Previous Version | Text Only | Print | Product List | Glossary On
Versions: 1 2 3 4 5 6 7 8 9 10 11 12 13 14
000
FTUS45 KABQ 222325
TAFLVS
TAF
KLVS 222325Z 2300/2324 08008KT P6SM VCTS BKN080CB
      TEMPO 2300/2303 VRB25G35KT BKN070CB
     FM230300 02012G20KT P6SM VCSH BKN070
     FM230600 03007KT P6SM SCT070 BKN120
     FM231500 07008KT P6SM SCT120
     FM231900 10010KT P6SM VCTS BKN070CB=

USA.gov is the U.S. government's official web portal to all federal, state and local government web resources and services.